KFAT

Fresno Yosemite International Airport

Fresno, California, USA
METAR KFAT 170153Z 07004KT 5SM HZ CLR 10/04 A2988 RMK AO2 SLP116 T01000044
Observed Flight Rules
Dec-17 @ 01:53 UTC (38 minutes ago) Marginal Visual Flight Rules
Wind Visibility Clouds Conditions
70° at 4 knots 5 miles
  • Clear skies
  • Haze
Temperatures Readings
Current 10°C / 50°F
Dewpoint 4°C / 39°F
Humidity 67%
Altimeter 29.88" Hg
Pressure 1011.6 hPa
Elevation 104
METAR KFAT 170153Z 07004KT 5SM HZ CLR 10/04 A2988 RMK AO2 SLP116 T01000044
Observed Flight Rules
Dec-17 @ 01:53 UTC
(38 minutes ago)
MVFR
Wind Visibility
70° at 4 knots 5 miles
Clouds
  • Clear skies
Conditions
  • Haze
Temperature Dewpoint
10°C / 50°F 4°C / 39°F
Humidity Altimeter Pressure
67% 29.88" Hg 1011.6 hPa